Celebrity Century — 9HJI9 — position and weather

sailwx.info

Track history (hours):
 
Tides and Currents Weather Stations Pressure Air Temp Water Temp Dewpoint Dewpoint Depression Visibility Wind Speed Wind Dir Waves Ship Positions

Celebrity Century

Last reported at 2018-Aug-13 21:27 UTC. Time now 2018-Aug-14 13:47 UTC.
Position N 31°05' E 122°31'.

Length 251 m; draft 8 m.

Type: Ship. MMSI: 249054000.

Date/timePositionNaut miles runAvg speedWind from/ knotsBaromVisibWave heightAir tempDewpointWater temp
2018-Aug-13 21:27N 31°05' E 122°31'715.6
2018-Aug-13 21:00N 31°06' E 122°23'914.4
2018-Aug-13 20:21N 31°10' E 122°12'515.4
2018-Aug-13 20:00N 31°13' E 122°08'715.0
2018-Aug-13 19:30N 31°15' E 121°59'814.8
2018-Aug-13 19:00N 31°17' E 121°51'813.9
2018-Aug-13 18:25N 31°20' E 121°42'1 0.1
2018-Aug-13 10:20N 31°20' E 121°41'412.3
2018-Aug-13 10:00N 31°18' E 121°46'611.9
2018-Aug-13 09:31N 31°16' E 121°52'611.2
2018-Aug-13 09:00N 31°15' E 121°59'510.7
2018-Aug-13 08:31N 31°14' E 122°05'610.0
2018-Aug-13 07:57N 31°11' E 122°10'4 8.9
2018-Aug-13 07:30N 31°09' E 122°14'611.4
2018-Aug-13 07:01N 31°06' E 122°20'5 9.8
2018-Aug-13 06:30N 31°08' E 122°25'0 0.1
2018-Aug-13 00:28N 31°08' E 122°25'1 2.7
2018-Aug-13 00:00N 31°07' E 122°25'611.8
2018-Aug-12 23:29N 31°07' E 122°33'712.8
2018-Aug-12 22:58N 31°07' E 122°40'  
2018-Aug-09 10:37N 31°10' E 122°11'212.6
2018-Aug-09 10:28N 31°12' E 122°09'914.4
2018-Aug-09 09:50N 31°15' E 121°59'515.3
2018-Aug-09 09:30N 31°16' E 121°53'815.3
2018-Aug-09 09:00N 31°19' E 121°45'4 0.4
2018-Aug-08 21:23N 31°21' E 121°41'512.2
2018-Aug-08 20:59N 31°18' E 121°46'612.4
2018-Aug-08 20:30N 31°16' E 121°52'611.2
2018-Aug-08 19:58N 31°15' E 121°59'510.3
2018-Aug-08 19:30N 31°14' E 122°05'710.7
2018-Aug-08 18:52N 31°10' E 122°11'411.2
2018-Aug-08 18:30N 31°08' E 122°15'612.5
2018-Aug-08 18:00N 31°06' E 122°22'4 8.8
2018-Aug-08 17:30N 31°07' E 122°27'6 9.1
2018-Aug-08 16:50N 31°07' E 122°34'  
2018-Aug-05 11:25N 31°14' E 122°04'512.2
2018-Aug-05 11:00N 31°15' E 121°58'611.2
2018-Aug-05 10:29N 31°16' E 121°51'511.3
2018-Aug-05 10:00N 31°18' E 121°45'5 0.4
2018-Aug-04 20:38N 31°21' E 121°40'1 9.2
2018-Aug-04 20:30N 31°20' E 121°42'4 8.8
2018-Aug-04 20:00N 31°18' E 121°46'611.2
2018-Aug-04 19:29N 31°16' E 121°53'511.3
2018-Aug-04 19:00N 31°15' E 121°59'611.1
2018-Aug-04 18:30N 31°14' E 122°05'5 9.1
2018-Aug-04 18:00N 31°11' E 122°10'5 9.4
2018-Aug-04 17:30N 31°09' E 122°14'510.2
2018-Aug-04 17:00N 31°06' E 122°19'611.6
2018-Aug-04 16:30N 31°07' E 122°26'610.3
2018-Aug-04 15:56N 31°07' E 122°33'813.9
2018-Aug-04 15:23N 31°07' E 122°42'615.0
2018-Aug-04 14:58N 31°07' E 122°49'  
Track history (hours):
 
Tides and Currents Weather Stations Pressure Air Temp Water Temp Dewpoint Dewpoint Depression Visibility Wind Speed Wind Dir Waves Ship Positions

Celebrity Century

Last reported at 2018-Aug-13 21:27 UTC. Time now 2018-Aug-14 13:47 UTC.
Position N 31°05' E 122°31'.

Length 251 m; draft 8 m.

Type: Ship. MMSI: 249054000.

Date/timePositionNaut miles runAvg speedWind from/ knotsBaromVisibWave heightAir tempDewpointWater temp
2018-Aug-13 21:27N 31°05' E 122°31'715.6
2018-Aug-13 21:00N 31°06' E 122°23'914.4
2018-Aug-13 20:21N 31°10' E 122°12'515.4
2018-Aug-13 20:00N 31°13' E 122°08'715.0
2018-Aug-13 19:30N 31°15' E 121°59'814.8
2018-Aug-13 19:00N 31°17' E 121°51'813.9
2018-Aug-13 18:25N 31°20' E 121°42'1 0.1
2018-Aug-13 10:20N 31°20' E 121°41'412.3
2018-Aug-13 10:00N 31°18' E 121°46'611.9
2018-Aug-13 09:31N 31°16' E 121°52'611.2
2018-Aug-13 09:00N 31°15' E 121°59'510.7
2018-Aug-13 08:31N 31°14' E 122°05'610.0
2018-Aug-13 07:57N 31°11' E 122°10'4 8.9
2018-Aug-13 07:30N 31°09' E 122°14'611.4
2018-Aug-13 07:01N 31°06' E 122°20'5 9.8
2018-Aug-13 06:30N 31°08' E 122°25'0 0.1
2018-Aug-13 00:28N 31°08' E 122°25'1 2.7
2018-Aug-13 00:00N 31°07' E 122°25'611.8
2018-Aug-12 23:29N 31°07' E 122°33'712.8
2018-Aug-12 22:58N 31°07' E 122°40'  
2018-Aug-09 10:37N 31°10' E 122°11'212.6
2018-Aug-09 10:28N 31°12' E 122°09'914.4
2018-Aug-09 09:50N 31°15' E 121°59'515.3
2018-Aug-09 09:30N 31°16' E 121°53'815.3
2018-Aug-09 09:00N 31°19' E 121°45'4 0.4
2018-Aug-08 21:23N 31°21' E 121°41'512.2
2018-Aug-08 20:59N 31°18' E 121°46'612.4
2018-Aug-08 20:30N 31°16' E 121°52'611.2
2018-Aug-08 19:58N 31°15' E 121°59'510.3
2018-Aug-08 19:30N 31°14' E 122°05'710.7
2018-Aug-08 18:52N 31°10' E 122°11'411.2
2018-Aug-08 18:30N 31°08' E 122°15'612.5
2018-Aug-08 18:00N 31°06' E 122°22'4 8.8
2018-Aug-08 17:30N 31°07' E 122°27'6 9.1
2018-Aug-08 16:50N 31°07' E 122°34'  
2018-Aug-05 11:25N 31°14' E 122°04'512.2
2018-Aug-05 11:00N 31°15' E 121°58'611.2
2018-Aug-05 10:29N 31°16' E 121°51'511.3
2018-Aug-05 10:00N 31°18' E 121°45'5 0.4
2018-Aug-04 20:38N 31°21' E 121°40'1 9.2
2018-Aug-04 20:30N 31°20' E 121°42'4 8.8
2018-Aug-04 20:00N 31°18' E 121°46'611.2
2018-Aug-04 19:29N 31°16' E 121°53'511.3
2018-Aug-04 19:00N 31°15' E 121°59'611.1
2018-Aug-04 18:30N 31°14' E 122°05'5 9.1
2018-Aug-04 18:00N 31°11' E 122°10'5 9.4
2018-Aug-04 17:30N 31°09' E 122°14'510.2
2018-Aug-04 17:00N 31°06' E 122°19'611.6
2018-Aug-04 16:30N 31°07' E 122°26'610.3
2018-Aug-04 15:56N 31°07' E 122°33'813.9
2018-Aug-04 15:23N 31°07' E 122°42'615.0
2018-Aug-04 14:58N 31°07' E 122°49'  

Dump ship's entire track history